Time;durP1;ratioP1;P1;durP2;ratioP2;P2;SDS_P1;SDS_P2;PMS_P1;PMS_P2;Temp;Humidity;BMP_temperature;BMP_pressure;BME280_temperature;BME280_humidity;BME280_pressure;Samples;Min_cycle;Max_cycle;Signal;HPM_P1;HPM_P2
2023/10/09 00:00:50;;;;;;;13.48;3.30;;;;;;;23.77;36.12;99132.91;4960449;28;20027;-86
2023/10/09 00:03:22;;;;;;;14.55;2.97;;;;;;;23.71;35.77;99146.19;4959716;28;20174;-88
2023/10/09 00:05:49;;;;;;;21.83;3.08;;;;;;;23.60;35.54;99151.00;4959858;28;20121;-86
2023/10/09 00:08:30;;;;;;;15.57;3.00;;;;;;;23.47;35.28;99153.53;4943608;28;20089;-85
2023/10/09 00:11:13;;;;;;;11.10;2.42;;;;;;;23.31;35.32;99167.94;4963789;28;20030;-83
2023/10/09 00:13:48;;;;;;;12.98;2.80;;;;;;;23.13;35.07;99173.66;4961328;28;20042;-88
2023/10/09 00:16:15;;;;;;;10.10;2.22;;;;;;;23.05;35.64;99174.56;4962287;28;20094;-84
2023/10/09 00:18:46;;;;;;;26.30;2.30;;;;;;;22.85;34.94;99174.34;4959750;28;20034;-88
2023/10/09 00:21:24;;;;;;;22.85;2.00;;;;;;;22.73;35.47;99173.16;4957218;28;20506;-89
2023/10/09 00:23:54;;;;;;;18.70;2.63;;;;;;;22.54;35.13;99177.22;4941110;28;20043;-84
2023/10/09 00:26:19;;;;;;;16.58;1.95;;;;;;;22.39;35.67;99179.84;4925543;28;20030;-87
2023/10/09 00:28:47;;;;;;;14.77;1.75;;;;;;;22.23;34.88;99204.75;4924257;28;20035;-88
2023/10/09 00:31:15;;;;;;;15.25;1.60;;;;;;;22.15;35.42;99212.81;4940374;28;20513;-84
2023/10/09 00:33:43;;;;;;;19.00;1.50;;;;;;;21.91;36.05;99193.41;4940836;28;20034;-83
2023/10/09 00:36:12;;;;;;;15.98;1.65;;;;;;;21.92;35.53;99213.69;4955985;28;20050;-84
2023/10/09 00:38:44;;;;;;;16.38;1.70;;;;;;;21.85;36.31;99200.28;4925220;28;20507;-84
2023/10/09 00:41:10;;;;;;;15.55;1.30;;;;;;;21.86;35.94;99206.41;4942319;28;20034;-86
2023/10/09 00:43:37;;;;;;;10.43;1.23;;;;;;;21.79;35.89;99221.41;4925573;28;20035;-84
2023/10/09 00:46:08;;;;;;;9.82;1.00;;;;;;;21.77;35.49;99234.06;4943396;28;20038;-88
2023/10/09 00:48:37;;;;;;;8.75;1.05;;;;;;;21.74;35.95;99237.88;4944992;28;20122;-86
2023/10/09 00:51:18;;;;;;;6.22;0.95;;;;;;;21.62;35.60;99237.47;4928832;28;20049;-87
2023/10/09 00:53:51;;;;;;;6.18;1.30;;;;;;;21.64;35.60;99247.94;4959245;28;20045;-86
2023/10/09 00:56:38;;;;;;;8.93;1.10;;;;;;;21.63;35.65;99249.78;4945464;28;20137;-85
2023/10/09 00:59:14;;;;;;;10.80;0.93;;;;;;;21.62;35.00;99265.88;4946087;28;20042;-83
2023/10/09 01:01:44;;;;;;;8.38;0.90;;;;;;;21.57;35.27;99250.47;4945218;28;20483;-83
2023/10/09 01:04:10;;;;;;;5.25;0.90;;;;;;;21.45;34.29;99252.66;4945442;28;20023;-85
2023/10/09 01:06:44;;;;;;;12.73;1.15;;;;;;;21.32;34.54;99269.16;4928950;28;20037;-87
2023/10/09 01:09:14;;;;;;;9.35;1.15;;;;;;;21.25;35.52;99262.91;4959390;28;20031;-84
2023/10/09 01:12:03;;;;;;;7.57;0.80;;;;;;;21.26;35.41;99269.03;4960484;28;20035;-85
2023/10/09 01:14:37;;;;;;;11.70;1.02;;;;;;;21.29;35.34;99256.22;4947099;28;20039;-84
2023/10/09 01:17:29;;;;;;;5.32;0.95;;;;;;;21.35;35.21;99272.44;4944493;28;20031;-84
2023/10/09 01:19:55;;;;;;;8.32;0.80;;;;;;;21.19;35.24;99271.56;4958806;28;20109;-85
2023/10/09 01:22:21;;;;;;;6.70;0.77;;;;;;;21.11;34.36;99284.84;4965829;28;20057;-87
2023/10/09 01:24:50;;;;;;;5.05;0.70;;;;;;;21.03;35.48;99291.03;4927846;28;20465;-86
2023/10/09 01:27:15;;;;;;;7.15;0.93;;;;;;;21.06;35.55;99290.69;4943647;28;20041;-85
2023/10/09 01:29:45;;;;;;;2.97;0.90;;;;;;;21.04;34.90;99292.66;4942738;28;20035;-86
2023/10/09 01:32:18;;;;;;;4.60;0.85;;;;;;;20.96;35.50;99301.47;4943604;28;20035;-85
2023/10/09 01:37:22;;;;;;;6.03;0.90;;;;;;;20.93;35.48;99311.59;4944078;28;20383;-84
2023/10/09 01:39:48;;;;;;;4.28;1.00;;;;;;;20.98;35.30;99324.38;4944228;28;20077;-86
2023/10/09 01:42:33;;;;;;;6.55;0.70;;;;;;;20.98;35.25;99319.88;4958841;28;20054;-85
2023/10/09 01:45:09;;;;;;;3.15;0.70;;;;;;;20.98;35.07;99317.22;4947894;28;20034;-83
2023/10/09 01:47:39;;;;;;;5.15;0.75;;;;;;;20.99;35.23;99310.94;4929585;28;20034;-84
2023/10/09 01:50:09;;;;;;;9.30;0.85;;;;;;;20.97;34.51;99318.25;4942953;28;20509;-83
2023/10/09 01:52:37;;;;;;;2.80;0.70;;;;;;;20.93;35.29;99316.91;4944201;28;20068;-85
2023/10/09 01:55:07;;;;;;;3.05;0.82;;;;;;;20.93;35.18;99327.53;4926869;28;20486;-85
2023/10/09 01:57:34;;;;;;;3.78;0.80;;;;;;;20.91;35.01;99338.31;4943028;28;20050;-85
2023/10/09 01:59:59;;;;;;;3.78;0.90;;;;;;;20.87;35.09;99336.16;4942624;28;20042;-83
2023/10/09 02:02:33;;;;;;;7.28;0.68;;;;;;;20.92;35.26;99337.31;4926332;28;20494;-85
2023/10/09 02:07:40;;;;;;;4.00;0.63;;;;;;;20.86;34.78;99355.72;4945092;28;20031;-84
2023/10/09 02:10:25;;;;;;;4.40;0.70;;;;;;;20.73;35.24;99346.47;4943005;28;20041;-82
2023/10/09 02:13:00;;;;;;;8.00;0.68;;;;;;;20.73;35.44;99354.44;4943584;28;20063;-85
2023/10/09 02:26:06;;;;;;;6.03;0.70;;;;;;;20.47;34.03;99369.66;4945085;28;20031;-85
2023/10/09 02:28:35;;;;;;;3.55;0.90;;;;;;;20.20;33.39;99368.97;4942564;28;20549;-86
2023/10/09 02:31:09;;;;;;;4.47;0.75;;;;;;;20.14;34.88;99372.28;4942146;28;20030;-86
2023/10/09 02:33:36;;;;;;;6.78;0.80;;;;;;;20.12;34.50;99375.09;4942944;28;20034;-88
2023/10/09 02:36:12;;;;;;;3.70;0.65;;;;;;;20.12;34.03;99391.00;4941823;28;20029;-83
2023/10/09 02:38:41;;;;;;;3.17;0.70;;;;;;;20.03;33.63;99387.47;4944492;28;20061;-84
2023/10/09 02:43:50;;;;;;;5.72;0.82;;;;;;;19.99;33.44;99395.94;4941905;28;20130;-84
2023/10/09 02:48:50;;;;;;;3.17;0.70;;;;;;;19.96;33.33;99383.84;4954500;28;20026;-84
2023/10/09 02:51:31;;;;;;;7.20;0.70;;;;;;;20.04;32.45;99394.44;4964012;28;20039;-84
2023/10/09 02:53:59;;;;;;;5.10;0.60;;;;;;;20.01;32.74;99401.91;4963993;28;20039;-84
2023/10/09 02:56:38;;;;;;;4.43;0.70;;;;;;;20.03;31.82;99406.03;4962337;28;20042;-85
2023/10/09 02:59:06;;;;;;;3.00;0.70;;;;;;;19.96;32.04;99418.28;4963659;28;20023;-83
2023/10/09 03:01:37;;;;;;;7.65;0.70;;;;;;;19.83;31.65;99410.78;4962233;28;20142;-84
2023/10/09 03:04:06;;;;;;;2.03;0.70;;;;;;;19.74;32.09;99414.38;4959011;28;20036;-84
2023/10/09 03:06:34;;;;;;;1.50;0.60;;;;;;;19.76;31.75;99409.75;4966934;28;20037;-80
2023/10/09 03:09:00;;;;;;;3.87;0.83;;;;;;;19.71;31.82;99412.84;4983172;28;20043;-84
2023/10/09 03:11:32;;;;;;;2.97;0.63;;;;;;;19.69;31.91;99421.97;4966597;28;20298;-86
2023/10/09 03:13:57;;;;;;;3.38;0.90;;;;;;;19.66;31.69;99435.53;4968016;28;20039;-84
2023/10/09 03:16:23;;;;;;;2.00;0.70;;;;;;;19.65;31.82;99425.91;4965927;28;20054;-85
2023/10/09 03:18:51;;;;;;;2.47;0.70;;;;;;;19.75;31.45;99444.31;4950312;28;20046;-85
2023/10/09 03:21:17;;;;;;;2.45;0.73;;;;;;;19.75;31.32;99449.63;4966548;28;20042;-85
2023/10/09 03:23:49;;;;;;;7.07;0.90;;;;;;;19.74;30.95;99459.41;4996152;28;20050;-83
2023/10/09 03:26:17;;;;;;;2.80;0.98;;;;;;;19.80;31.73;99458.78;4986171;28;20022;-85
2023/10/09 03:28:45;;;;;;;3.22;0.82;;;;;;;19.83;31.41;99461.13;4984600;28;20030;-83
2023/10/09 03:31:11;;;;;;;3.10;0.93;;;;;;;19.90;31.43;99474.56;4969653;28;20045;-85
2023/10/09 03:33:38;;;;;;;2.13;0.80;;;;;;;19.92;31.31;99490.31;4961980;28;20066;-91
2023/10/09 03:36:07;;;;;;;2.63;0.90;;;;;;;19.92;31.23;99482.34;4946020;28;20054;-82
2023/10/09 03:38:34;;;;;;;3.95;1.00;;;;;;;19.91;31.22;99472.72;4962667;28;20411;-84
2023/10/09 03:41:05;;;;;;;4.00;1.17;;;;;;;19.94;31.30;99475.06;4972461;28;20035;-85
2023/10/09 03:43:37;;;;;;;4.35;0.93;;;;;;;19.98;30.87;99482.53;4970924;28;20034;-85
2023/10/09 03:46:25;;;;;;;4.30;1.40;;;;;;;19.97;30.82;99482.69;4963215;28;20111;-83
2023/10/09 03:48:56;;;;;;;2.22;0.73;;;;;;;19.93;30.80;99489.31;4994487;28;20119;-75
2023/10/09 03:51:21;;;;;;;7.47;0.98;;;;;;;20.04;33.92;99504.94;4992887;28;20076;-78
2023/10/09 03:53:50;;;;;;;4.13;1.02;;;;;;;19.78;30.91;99484.63;4959082;28;20036;-77
2023/10/09 03:56:18;;;;;;;5.32;1.10;;;;;;;19.40;30.55;99493.78;4959231;28;20064;-77
2023/10/09 03:58:50;;;;;;;2.63;0.80;;;;;;;19.13;30.70;99492.94;4975393;28;20038;-79
2023/10/09 04:01:29;;;;;;;6.63;0.90;;;;;;;18.96;30.99;99492.81;4959231;28;20034;-77
2023/10/09 04:03:59;;;;;;;8.25;0.93;;;;;;;18.69;31.85;99499.00;4963154;28;20061;-77
2023/10/09 04:06:30;;;;;;;2.47;0.82;;;;;;;18.63;31.87;99512.81;4960073;28;20113;-75
2023/10/09 04:11:46;;;;;;;2.80;0.60;;;;;;;18.33;32.57;99506.88;4992912;28;20486;-75
2023/10/09 04:14:24;;;;;;;3.08;1.00;;;;;;;18.23;32.06;99508.72;4975948;28;20046;-76
2023/10/09 04:17:03;;;;;;;4.10;1.00;;;;;;;18.12;32.00;99508.94;4962359;28;20037;-73
2023/10/09 04:19:29;;;;;;;3.15;0.60;;;;;;;18.02;31.96;99522.19;4965420;28;20042;-76
2023/10/09 04:21:58;;;;;;;1.92;0.88;;;;;;;17.98;31.80;99521.66;4962483;28;20038;-77
2023/10/09 04:24:23;;;;;;;4.90;0.90;;;;;;;17.90;31.89;99537.41;4963049;28;20048;-77
2023/10/09 04:26:55;;;;;;;2.63;0.70;;;;;;;17.83;31.58;99541.56;4978512;28;20038;-79
2023/10/09 04:29:26;;;;;;;11.93;1.25;;;;;;;18.10;38.18;99540.78;4980407;28;20115;-82
2023/10/09 04:31:56;;;;;;;6.38;1.00;;;;;;;18.31;36.34;99545.00;4995302;28;20105;-80
2023/10/09 04:34:35;;;;;;;5.10;0.65;;;;;;;18.45;35.61;99544.50;4963536;28;20027;-81
2023/10/09 04:40:38;;;;;;;2.30;0.82;;;;;;;18.55;34.78;99555.00;4916823;29;20048;-79
2023/10/09 04:42:58;;;;;;;2.45;0.80;;;;;;;18.59;34.46;99556.38;4916825;29;20079;-80
2023/10/09 04:48:09;;;;;;;2.90;0.95;;;;;;;18.71;34.16;99571.06;4917313;29;20039;-79
2023/10/09 04:55:44;;;;;;;4.22;0.93;;;;;;;18.80;34.10;99577.25;4916786;29;20055;-80
2023/10/09 04:58:13;;;;;;;1.90;0.85;;;;;;;18.83;34.13;99582.25;4901257;29;20045;-79
2023/10/09 05:03:12;;;;;;;5.13;0.88;;;;;;;18.94;33.62;99586.53;4916891;29;20032;-80
2023/10/09 05:08:20;;;;;;;2.92;0.88;;;;;;;19.05;33.38;99591.59;4916468;29;20040;-80
2023/10/09 05:16:18;;;;;;;2.38;0.90;;;;;;;19.33;33.01;99602.13;4979016;28;20034;-79
2023/10/09 05:18:45;;;;;;;3.88;1.13;;;;;;;19.45;32.89;99598.25;4963252;28;20045;-80
2023/10/09 05:26:50;;;;;;;5.63;1.08;;;;;;;20.27;31.58;99605.09;4967269;28;20042;-83
2023/10/09 05:29:19;;;;;;;2.75;0.82;;;;;;;21.32;29.94;99609.03;4967950;28;20106;-81
2023/10/09 05:37:34;;;;;;;2.13;0.77;;;;;;;21.42;29.11;99619.50;4940576;29;20388;-81
2023/10/09 05:47:57;;;;;;;4.35;1.00;;;;;;;20.70;30.58;99662.50;4941511;29;20505;-80
2023/10/09 06:06:05;;;;;;;1.70;0.80;;;;;;;20.01;32.06;99680.97;4937922;29;20032;-79
2023/10/09 06:11:38;;;;;;;2.47;0.80;;;;;;;19.90;32.38;99691.00;4952837;28;20061;-81
2023/10/09 06:19:07;;;;;;;3.30;0.82;;;;;;;19.83;32.19;99704.88;4961902;28;20108;-80
2023/10/09 06:24:16;;;;;;;1.90;0.80;;;;;;;19.75;32.51;99704.78;4962735;28;20382;-76
2023/10/09 06:29:35;;;;;;;2.88;1.00;;;;;;;19.89;32.30;99711.34;4965203;28;20132;-81
2023/10/09 06:35:15;;;;;;;2.20;1.00;;;;;;;20.04;31.89;99725.72;4966065;28;20048;-82
2023/10/09 06:38:21;;;;;;;3.20;0.80;;;;;;;20.11;32.15;99730.41;4966943;28;20034;-81
2023/10/09 06:43:42;;;;;;;3.25;0.90;;;;;;;20.32;31.30;99738.00;4961012;28;20215;-81
2023/10/09 06:49:15;;;;;;;2.22;0.80;;;;;;;20.41;30.97;99742.38;4943984;28;20035;-82
2023/10/09 06:51:43;;;;;;;1.88;0.93;;;;;;;20.40;31.03;99743.38;4958396;28;20035;-80
2023/10/09 06:54:15;;;;;;;4.15;1.45;;;;;;;20.43;31.04;99756.34;4940866;28;20085;-80
2023/10/09 06:59:21;;;;;;;4.20;0.98;;;;;;;20.69;30.64;99747.56;4957891;28;20108;-79
2023/10/09 07:02:45;;;;;;;4.63;1.27;;;;;;;20.67;30.65;99755.66;4940599;28;20039;-79
2023/10/09 07:07:12;;;;;;;2.90;1.00;;;;;;;20.93;29.75;99755.63;4939850;28;20039;-80
2023/10/09 07:12:27;;;;;;;4.00;0.80;;;;;;;21.13;29.69;99761.50;4944631;28;20130;-79
2023/10/09 07:15:39;;;;;;;5.80;1.27;;;;;;;21.05;29.54;99766.78;4940086;28;20473;-79
2023/10/09 07:17:47;;;;;;;1.75;0.90;;;;;;;21.01;29.44;99772.56;4959821;28;20478;-81
2023/10/09 07:23:13;;;;;;;2.65;0.93;;;;;;;20.86;29.39;99761.72;4965347;28;20472;-79
2023/10/09 07:25:42;;;;;;;5.45;0.98;;;;;;;20.74;29.29;99761.16;4964047;28;20041;-79
2023/10/09 07:28:36;;;;;;;3.55;1.00;;;;;;;20.68;29.01;99764.44;4944689;28;20034;-79
2023/10/09 07:31:24;;;;;;;3.70;1.10;;;;;;;20.65;29.26;99756.81;4968870;28;20036;-81
2023/10/09 07:33:56;;;;;;;2.92;1.10;;;;;;;20.63;28.87;99764.88;4961550;28;20181;-81
2023/10/09 07:36:47;;;;;;;4.05;0.90;;;;;;;20.56;28.51;99754.06;4961049;28;20089;-81
2023/10/09 07:39:16;;;;;;;5.00;0.90;;;;;;;20.61;28.85;99758.91;4978718;28;20050;-80
2023/10/09 07:42:01;;;;;;;2.05;0.75;;;;;;;20.59;28.81;99767.03;4960979;28;20520;-79
2023/10/09 07:44:37;;;;;;;3.50;0.88;;;;;;;20.57;28.75;99781.44;4965047;28;20065;-81
2023/10/09 07:49:59;;;;;;;3.65;0.90;;;;;;;20.57;29.06;99771.66;4972224;28;20042;-81
2023/10/09 07:52:26;;;;;;;4.32;0.88;;;;;;;20.63;29.05;99777.31;4962366;28;20150;-81
2023/10/09 07:54:53;;;;;;;3.75;1.00;;;;;;;20.67;28.93;99773.38;4948337;28;20118;-81
2023/10/09 07:57:25;;;;;;;2.63;0.90;;;;;;;20.81;28.88;99782.59;4948685;28;20042;-79
2023/10/09 08:00:12;;;;;;;3.47;1.02;;;;;;;20.92;28.72;99775.19;4966642;28;20088;-81
2023/10/09 08:02:38;;;;;;;2.20;1.02;;;;;;;21.03;28.53;99778.56;4953324;28;20121;-81
2023/10/09 08:05:18;;;;;;;3.10;0.90;;;;;;;21.14;28.11;99775.59;4963894;28;20058;-79
2023/10/09 08:07:54;;;;;;;4.05;1.02;;;;;;;21.28;27.69;99780.31;4966142;28;20065;-80
2023/10/09 08:18:18;;;;;;;3.90;0.88;;;;;;;23.76;24.32;99762.97;4964784;28;20516;-80
2023/10/09 08:23:33;;;;;;;4.18;1.15;;;;;;;26.15;21.36;99771.72;4968465;28;20034;-79
2023/10/09 08:26:12;;;;;;;4.00;0.90;;;;;;;26.88;20.93;99771.44;4948416;28;20398;-80
2023/10/09 08:28:39;;;;;;;2.40;1.00;;;;;;;27.57;19.78;99768.81;4981194;28;20136;-79
2023/10/09 08:31:34;;;;;;;4.53;1.10;;;;;;;27.60;19.71;99771.09;4963124;28;20037;-81
2023/10/09 08:34:03;;;;;;;3.70;1.05;;;;;;;27.30;19.28;99771.41;4981866;28;20033;-79
2023/10/09 08:36:36;;;;;;;5.03;1.08;;;;;;;27.62;19.80;99763.66;4963703;28;20118;-80
2023/10/09 08:39:17;;;;;;;4.32;0.93;;;;;;;27.76;18.97;99769.91;4978878;28;20141;-81
2023/10/09 08:41:44;;;;;;;5.47;0.98;;;;;;;27.50;19.54;99767.97;4950317;28;20030;-81
2023/10/09 08:44:12;;;;;;;5.78;1.00;;;;;;;27.28;19.85;99768.09;4946930;28;20133;-78
2023/10/09 08:46:42;;;;;;;1.88;0.95;;;;;;;27.11;20.38;99766.81;4947020;28;20030;-81
2023/10/09 08:49:09;;;;;;;2.30;0.85;;;;;;;26.96;19.92;99775.78;4980066;28;20038;-80
2023/10/09 08:51:35;;;;;;;3.70;1.17;;;;;;;26.65;19.91;99770.91;4947555;28;20041;-80
2023/10/09 08:54:01;;;;;;;4.07;0.98;;;;;;;26.27;20.74;99776.59;4963056;28;20401;-79
2023/10/09 08:56:26;;;;;;;9.68;1.27;;;;;;;26.01;20.38;99761.94;4962509;28;20486;-79
2023/10/09 08:58:52;;;;;;;7.38;1.00;;;;;;;25.73;20.73;99765.38;4946516;28;20470;-79
2023/10/09 09:01:21;;;;;;;6.15;1.00;;;;;;;25.36;21.16;99759.22;4962747;28;20038;-79
2023/10/09 09:03:47;;;;;;;2.15;1.00;;;;;;;25.01;21.77;99755.50;4946891;28;20193;-83
2023/10/09 09:06:14;;;;;;;2.65;0.80;;;;;;;24.84;21.79;99763.72;4946689;28;20036;-82
2023/10/09 09:08:40;;;;;;;2.03;0.85;;;;;;;24.68;22.21;99762.03;4962674;28;20026;-80
2023/10/09 09:11:11;;;;;;;4.22;1.02;;;;;;;24.52;22.82;99759.50;4962393;28;20505;-81
2023/10/09 09:13:41;;;;;;;4.95;1.02;;;;;;;24.45;22.97;99762.09;4963231;28;20082;-81
2023/10/09 09:16:29;;;;;;;3.38;0.90;;;;;;;24.28;23.17;99769.41;4947255;28;20091;-83
2023/10/09 09:19:04;;;;;;;1.80;0.80;;;;;;;24.24;23.42;99770.78;4962474;28;20042;-80
2023/10/09 09:21:37;;;;;;;1.77;0.90;;;;;;;24.22;23.18;99755.97;4996163;28;20034;-79
2023/10/09 09:24:15;;;;;;;4.82;0.98;;;;;;;24.24;23.35;99756.63;4947811;28;20031;-81
2023/10/09 09:26:45;;;;;;;8.30;1.10;;;;;;;24.37;23.45;99754.19;4964018;28;20038;-80
2023/10/09 09:29:12;;;;;;;4.53;0.88;;;;;;;24.50;23.31;99746.34;4963347;28;20026;-80
2023/10/09 09:31:38;;;;;;;3.28;0.85;;;;;;;24.97;22.77;99741.69;4962128;28;20053;-80
2023/10/09 09:34:12;;;;;;;4.00;1.10;;;;;;;25.40;21.89;99746.31;4962222;28;20545;-80
2023/10/09 09:36:53;;;;;;;5.50;1.05;;;;;;;25.61;21.50;99756.19;4964781;28;20041;-83
2023/10/09 09:39:26;;;;;;;4.20;1.00;;;;;;;25.50;21.33;99746.84;4963431;28;20041;-80
2023/10/09 09:42:13;;;;;;;1.95;0.80;;;;;;;26.20;20.28;99746.25;4948221;28;20121;-81
2023/10/09 09:44:45;;;;;;;1.77;1.00;;;;;;;25.92;21.11;99739.00;4950093;28;20113;-79
2023/10/09 09:47:23;;;;;;;3.95;1.00;;;;;;;26.14;20.79;99735.31;4964215;28;20037;-81
2023/10/09 09:49:50;;;;;;;4.25;0.90;;;;;;;26.30;20.82;99733.38;4964682;28;20449;-79
2023/10/09 09:52:18;;;;;;;2.65;0.95;;;;;;;26.37;20.41;99726.19;4962282;28;20512;-80
2023/10/09 09:54:45;;;;;;;5.03;1.00;;;;;;;26.97;19.61;99717.69;4962011;28;20038;-80
2023/10/09 09:57:12;;;;;;;6.28;1.13;;;;;;;27.39;19.01;99713.09;4945654;28;20505;-79
2023/10/09 09:59:49;;;;;;;2.38;1.08;;;;;;;27.52;18.73;99690.84;4962347;28;20125;-82
2023/10/09 10:02:20;;;;;;;3.53;0.95;;;;;;;27.50;19.00;99693.75;4966039;28;20041;-84
2023/10/09 10:04:49;;;;;;;3.13;0.88;;;;;;;27.62;18.92;99681.34;4964202;28;20033;-83
2023/10/09 10:07:16;;;;;;;2.78;0.73;;;;;;;27.69;19.32;99672.50;4964020;28;20030;-85
2023/10/09 10:09:45;;;;;;;6.07;1.20;;;;;;;27.83;19.11;99670.63;4947708;28;20485;-84
2023/10/09 10:12:11;;;;;;;2.38;0.80;;;;;;;27.87;18.67;99666.53;4963804;28;20065;-85
2023/10/09 10:15:17;;;;;;;7.15;0.90;;;;;;;27.94;18.78;99661.97;4946765;28;20030;-86
2023/10/09 10:18:19;;;;;;;3.80;1.00;;;;;;;28.00;18.65;99654.97;4979130;28;20030;-88
2023/10/09 10:21:14;;;;;;;3.85;1.00;;;;;;;28.07;18.77;99642.34;4924091;29;20396;-86
2023/10/09 10:23:40;;;;;;;3.70;1.17;;;;;;;28.04;18.94;99638.25;4939101;29;20110;-82
2023/10/09 10:26:26;;;;;;;1.92;0.90;;;;;;;28.06;19.07;99636.16;4922666;29;20094;-84
2023/10/09 10:29:22;;;;;;;4.20;0.95;;;;;;;28.10;18.70;99629.38;4925106;29;20039;-84
2023/10/09 10:32:01;;;;;;;5.95;1.13;;;;;;;28.11;18.92;99622.13;4926693;29;20034;-85
2023/10/09 10:35:06;;;;;;;3.38;1.15;;;;;;;27.98;18.75;99612.25;4924617;29;20035;-82
2023/10/09 10:37:44;;;;;;;3.80;1.13;;;;;;;27.94;19.26;99611.84;4936008;29;20038;-83
2023/10/09 10:40:19;;;;;;;4.15;1.10;;;;;;;27.86;19.18;99598.59;4924897;29;20035;-83
2023/10/09 10:45:43;;;;;;;4.60;0.93;;;;;;;27.71;19.56;99587.31;4941590;29;20074;-86
2023/10/09 10:48:10;;;;;;;2.53;0.90;;;;;;;27.58;19.35;99590.81;4924686;29;20035;-85
2023/10/09 10:50:36;;;;;;;3.17;1.10;;;;;;;27.43;19.90;99577.63;4923664;29;20051;-83
2023/10/09 10:53:18;;;;;;;2.42;1.00;;;;;;;27.29;19.91;99570.56;4923997;29;20100;-85
2023/10/09 10:56:17;;;;;;;2.97;0.90;;;;;;;27.18;20.19;99583.53;4976847;28;20501;-84
2023/10/09 11:01:58;;;;;;;3.28;1.20;;;;;;;26.82;20.79;99576.72;4965635;28;20129;-86
2023/10/09 11:04:27;;;;;;;4.13;1.30;;;;;;;26.65;21.21;99564.72;4971160;28;20030;-84
2023/10/09 11:07:00;;;;;;;2.85;0.95;;;;;;;26.66;21.15;99577.06;4963553;28;20030;-84
2023/10/09 11:09:35;;;;;;;3.15;0.80;;;;;;;26.53;21.70;99565.28;4947390;28;20521;-86
2023/10/09 11:12:21;;;;;;;4.18;1.00;;;;;;;26.39;21.43;99552.03;4962402;28;20121;-85
2023/10/09 11:15:05;;;;;;;5.15;0.90;;;;;;;26.34;22.24;99552.63;4963251;28;20061;-86
2023/10/09 11:17:40;;;;;;;5.55;1.20;;;;;;;26.12;21.87;99541.19;4977939;28;20038;-84
2023/10/09 11:25:50;;;;;;;4.25;1.00;;;;;;;25.67;23.05;99530.84;4966410;28;20041;-86
2023/10/09 11:28:29;;;;;;;3.30;1.00;;;;;;;25.54;23.13;99528.06;4949082;28;20510;-83
2023/10/09 11:31:15;;;;;;;4.43;1.20;;;;;;;25.44;24.13;99520.41;4947040;28;20038;-84
2023/10/09 11:33:55;;;;;;;4.80;1.08;;;;;;;25.27;23.84;99512.66;4964917;28;20042;-86
2023/10/09 11:36:31;;;;;;;3.95;0.98;;;;;;;25.17;24.46;99514.81;4962934;28;20111;-85
2023/10/09 11:39:20;;;;;;;8.18;1.33;;;;;;;25.02;24.45;99503.41;4964168;28;20500;-85
2023/10/09 11:41:49;;;;;;;5.43;1.02;;;;;;;24.92;24.68;99498.38;4951553;28;20109;-85
2023/10/09 11:44:25;;;;;;;3.72;0.85;;;;;;;24.81;24.76;99494.41;4963109;28;20037;-86
2023/10/09 11:46:58;;;;;;;4.53;1.10;;;;;;;24.63;24.54;99486.81;4980430;28;20113;-87
2023/10/09 11:49:44;;;;;;;4.25;1.08;;;;;;;24.55;24.75;99487.72;4962037;28;20065;-85
2023/10/09 11:52:56;;;;;;;3.10;1.20;;;;;;;24.46;25.29;99482.72;4978724;28;20049;-86
2023/10/09 11:55:00;;;;;;;3.22;1.20;;;;;;;24.34;25.51;99466.38;4968210;28;20070;-84
2023/10/09 11:57:33;;;;;;;5.97;1.10;;;;;;;24.32;25.66;99481.72;4961873;28;20097;-79
2023/10/09 12:00:24;;;;;;;3.38;0.90;;;;;;;24.34;27.11;99469.06;4961913;28;20140;-78
2023/10/09 12:02:52;;;;;;;3.33;0.88;;;;;;;24.30;27.02;99459.75;4963727;28;20069;-80
2023/10/09 12:05:18;;;;;;;4.57;1.20;;;;;;;24.38;26.27;99468.50;4976323;28;20092;-78
2023/10/09 12:07:46;;;;;;;4.75;1.10;;;;;;;24.32;26.25;99452.38;4959898;28;20140;-77
2023/10/09 12:10:13;;;;;;;;;;;;;;;24.38;26.11;99452.47;4959983;28;20039;-78
2023/10/09 12:12:40;;;;;;;2.13;0.85;;;;;;;24.32;26.05;99450.56;4959678;28;19917;-82
2023/10/09 12:15:06;;;;;;;2.72;1.20;;;;;;;24.32;25.87;99458.56;4959067;28;20030;-80
2023/10/09 12:17:32;;;;;;;6.65;1.40;;;;;;;24.31;25.73;99450.75;4959281;28;20041;-79
2023/10/09 12:19:58;;;;;;;5.80;1.30;;;;;;;24.26;25.74;99439.78;4943430;28;20034;-80
2023/10/09 12:22:26;;;;;;;6.43;1.48;;;;;;;24.23;25.63;99440.19;4962033;28;20103;-80
2023/10/09 12:24:52;;;;;;;5.18;1.23;;;;;;;24.20;25.56;99436.06;4946283;28;20038;-81
2023/10/09 12:27:20;;;;;;;4.80;1.45;;;;;;;24.22;25.34;99438.53;4960701;28;20030;-80
2023/10/09 12:29:45;;;;;;;4.73;1.20;;;;;;;24.22;25.49;99430.53;4976829;28;20047;-81
2023/10/09 12:32:11;;;;;;;9.40;1.30;;;;;;;24.22;25.50;99431.34;4961185;28;20034;-80
2023/10/09 12:34:38;;;;;;;5.43;1.30;;;;;;;24.15;25.68;99425.97;4961869;28;20030;-82
2023/10/09 12:37:04;;;;;;;6.18;1.20;;;;;;;24.13;26.16;99432.47;4944134;28;20458;-77
2023/10/09 12:39:40;;;;;;;10.13;1.23;;;;;;;24.16;25.91;99421.44;4961545;28;20041;-81
2023/10/09 12:42:08;;;;;;;5.90;1.15;;;;;;;24.06;25.51;99412.94;4966835;28;20046;-80
2023/10/09 12:44:38;;;;;;;6.88;1.17;;;;;;;24.06;26.09;99413.75;4963651;28;20497;-76
2023/10/09 12:47:07;;;;;;;8.27;1.20;;;;;;;24.06;26.05;99405.75;4964643;28;20042;-84
2023/10/09 12:49:33;;;;;;;5.78;1.30;;;;;;;23.93;25.70;99403.75;4964621;28;20042;-84
2023/10/09 12:51:59;;;;;;;12.43;1.40;;;;;;;23.88;25.44;99397.31;4964926;28;20026;-83
2023/10/09 12:54:28;;;;;;;6.07;1.52;;;;;;;23.81;25.34;99384.72;4948220;28;20193;-86
2023/10/09 12:56:54;;;;;;;4.88;1.40;;;;;;;23.72;25.71;99385.00;4964698;28;20077;-84
2023/10/09 12:59:20;;;;;;;5.78;1.48;;;;;;;23.62;25.49;99379.97;4948224;28;20065;-86
2023/10/09 13:01:52;;;;;;;2.40;1.17;;;;;;;23.59;25.46;99386.50;4952428;28;20509;-86
2023/10/09 13:04:21;;;;;;;4.90;0.93;;;;;;;23.55;25.42;99382.56;4952787;28;20041;-84
2023/10/09 13:06:51;;;;;;;6.38;1.00;;;;;;;23.43;25.29;99368.06;4949450;28;20084;-86
2023/10/09 13:12:17;;;;;;;7.35;1.20;;;;;;;23.29;25.06;99365.22;4944686;29;20102;-85
2023/10/09 13:14:43;;;;;;;3.13;1.15;;;;;;;23.21;25.05;99354.63;4925497;29;20023;-85
2023/10/09 13:17:10;;;;;;;3.45;1.50;;;;;;;23.18;25.31;99354.19;4924444;29;20137;-85
2023/10/09 13:19:35;;;;;;;4.72;1.60;;;;;;;23.12;25.45;99345.94;4939880;29;20038;-84
2023/10/09 13:22:03;;;;;;;5.15;1.48;;;;;;;23.08;25.20;99341.16;4907949;29;20047;-86
2023/10/09 13:24:29;;;;;;;;;;;;;;;23.02;25.20;99336.53;4924606;29;20031;-85
2023/10/09 13:26:58;;;;;;;4.00;1.40;;;;;;;22.94;25.62;99338.28;4925015;29;19919;-85
2023/10/09 13:29:23;;;;;;;5.80;1.48;;;;;;;22.88;25.34;99333.69;4924766;29;20121;-84
2023/10/09 13:32:01;;;;;;;3.57;1.33;;;;;;;22.81;25.70;99331.94;4925096;29;20114;-87
2023/10/09 13:34:28;;;;;;;6.63;1.52;;;;;;;22.80;25.59;99331.09;4941194;29;20035;-86
2023/10/09 13:36:56;;;;;;;5.72;1.40;;;;;;;22.78;25.64;99338.44;4909264;29;20035;-87
2023/10/09 13:39:25;;;;;;;6.75;1.52;;;;;;;22.74;25.52;99329.19;4908354;29;20047;-84
2023/10/09 13:42:07;;;;;;;4.90;1.50;;;;;;;22.73;26.05;99324.84;4911971;29;20041;-89
2023/10/09 13:44:34;;;;;;;5.68;1.45;;;;;;;22.70;25.97;99326.03;4942165;29;20035;-87
2023/10/09 13:47:02;;;;;;;8.80;1.23;;;;;;;22.70;25.91;99315.38;4939819;29;20441;-87
2023/10/09 13:49:30;;;;;;;;;;;;;;;22.68;25.99;99316.59;4962527;28;20421;-84
2023/10/09 13:51:58;;;;;;;6.65;1.20;;;;;;;22.58;26.15;99301.72;4980199;28;19914;-87
2023/10/09 13:56:59;;;;;;;2.88;1.13;;;;;;;22.53;25.92;99293.47;4965792;28;20050;-87
2023/10/09 13:59:27;;;;;;;3.05;1.27;;;;;;;22.49;26.31;99286.84;4947342;28;20069;-86
2023/10/09 14:01:56;;;;;;;4.10;1.42;;;;;;;22.49;26.04;99297.47;4966651;28;20132;-87
2023/10/09 14:04:26;;;;;;;5.05;1.42;;;;;;;22.47;26.25;99290.66;4971033;28;20027;-86
2023/10/09 14:06:59;;;;;;;3.28;1.35;;;;;;;22.43;26.15;99292.06;4969498;28;20049;-87
2023/10/09 14:09:30;;;;;;;5.68;1.58;;;;;;;22.40;26.04;99294.03;4967862;28;20397;-86
2023/10/09 14:14:47;;;;;;;8.90;1.67;;;;;;;22.28;26.41;99284.00;4979816;28;20132;-85
2023/10/09 14:17:28;;;;;;;8.65;1.83;;;;;;;22.28;26.61;99284.84;4963646;28;20133;-87
2023/10/09 14:22:55;;;;;;;5.72;1.60;;;;;;;22.22;26.73;99272.25;4906590;29;20044;-87
2023/10/09 14:25:21;;;;;;;5.68;1.60;;;;;;;22.19;26.65;99268.09;4885883;29;20130;-86
2023/10/09 14:27:48;;;;;;;3.85;1.40;;;;;;;22.33;31.53;99273.66;4884916;29;20221;-79